sensor_id;sensor_type;location;lat;lon;timestamp;pressure;altitude;pressure_sealevel;temperature;humidity
8699;BME280;4386;51.236;6.742;2022-10-20T00:00:58;101396.84;;;12.61;81.48
8699;BME280;4386;51.236;6.742;2022-10-20T00:02:16;101387.91;;;12.62;81.63
8699;BME280;4386;51.236;6.742;2022-10-20T00:03:19;101388.88;;;12.61;81.36
8699;BME280;4386;51.236;6.742;2022-10-20T00:04:21;101380.88;;;12.61;81.42
8699;BME280;4386;51.236;6.742;2022-10-20T00:05:23;101388.88;;;12.61;81.50
8699;BME280;4386;51.236;6.742;2022-10-20T00:06:27;101377.38;;;12.61;81.61
8699;BME280;4386;51.236;6.742;2022-10-20T00:07:29;101368.44;;;12.62;81.63
8699;BME280;4386;51.236;6.742;2022-10-20T00:08:31;101371.09;;;12.62;81.73
8699;BME280;4386;51.236;6.742;2022-10-20T00:09:33;101367.59;;;12.61;81.58
8699;BME280;4386;51.236;6.742;2022-10-20T00:10:41;101363.13;;;12.62;81.75
8699;BME280;4386;51.236;6.742;2022-10-20T00:11:44;101358.66;;;12.62;81.53
8699;BME280;4386;51.236;6.742;2022-10-20T00:12:48;101364.94;;;12.61;81.83
8699;BME280;4386;51.236;6.742;2022-10-20T00:13:51;101359.63;;;12.61;81.59
8699;BME280;4386;51.236;6.742;2022-10-20T00:14:54;101364.06;;;12.61;81.70
8699;BME280;4386;51.236;6.742;2022-10-20T00:15:57;101362.28;;;12.61;81.96
8699;BME280;4386;51.236;6.742;2022-10-20T00:17:00;101367.59;;;12.61;81.79
8699;BME280;4386;51.236;6.742;2022-10-20T00:18:02;101359.63;;;12.61;81.86
8699;BME280;4386;51.236;6.742;2022-10-20T00:19:04;101357.91;;;12.60;81.94
8699;BME280;4386;51.236;6.742;2022-10-20T00:20:07;101351.63;;;12.61;81.98
8699;BME280;4386;51.236;6.742;2022-10-20T00:21:13;101351.63;;;12.61;81.98
8699;BME280;4386;51.236;6.742;2022-10-20T00:22:15;101349.81;;;12.62;81.99
8699;BME280;4386;51.236;6.742;2022-10-20T00:23:17;101341.84;;;12.62;81.88
8699;BME280;4386;51.236;6.742;2022-10-20T00:24:19;101347.16;;;12.62;82.01
8699;BME280;4386;51.236;6.742;2022-10-20T00:25:22;101341.84;;;12.62;81.94
8699;BME280;4386;51.236;6.742;2022-10-20T00:26:24;101338.34;;;12.61;81.83
8699;BME280;4386;51.236;6.742;2022-10-20T00:27:27;101333.88;;;12.62;82.02
8699;BME280;4386;51.236;6.742;2022-10-20T00:28:30;101331.22;;;12.62;82.06
8699;BME280;4386;51.236;6.742;2022-10-20T00:29:33;101325.91;;;12.62;82.01
8699;BME280;4386;51.236;6.742;2022-10-20T00:30:35;101325.03;;;12.61;82.06
8699;BME280;4386;51.236;6.742;2022-10-20T00:31:38;101331.22;;;12.62;82.12
8699;BME280;4386;51.236;6.742;2022-10-20T00:32:39;101333.88;;;12.62;81.93
8699;BME280;4386;51.236;6.742;2022-10-20T00:33:42;101333.88;;;12.62;81.85
8699;BME280;4386;51.236;6.742;2022-10-20T00:34:44;101337.38;;;12.62;82.08
8699;BME280;4386;51.236;6.742;2022-10-20T00:35:46;101333.88;;;12.62;82.14
8699;BME280;4386;51.236;6.742;2022-10-20T00:36:48;101335.69;;;12.61;82.12
8699;BME280;4386;51.236;6.742;2022-10-20T00:37:52;101324.19;;;12.61;82.23
8699;BME280;4386;51.236;6.742;2022-10-20T00:38:56;101340.03;;;12.62;82.25
8699;BME280;4386;51.236;6.742;2022-10-20T00:39:59;101332.06;;;12.62;82.17
8699;BME280;4386;51.236;6.742;2022-10-20T00:41:01;101337.38;;;12.62;82.33
8699;BME280;4386;51.236;6.742;2022-10-20T00:42:04;101332.06;;;12.62;82.09
8699;BME280;4386;51.236;6.742;2022-10-20T00:43:09;101331.06;;;12.63;82.13
8699;BME280;4386;51.236;6.742;2022-10-20T00:44:46;101329.41;;;12.62;82.39
8699;BME280;4386;51.236;6.742;2022-10-20T00:45:51;101325.03;;;12.61;82.23
8699;BME280;4386;51.236;6.742;2022-10-20T00:46:55;101333.16;;;12.60;82.26
8699;BME280;4386;51.236;6.742;2022-10-20T00:48:01;101333.16;;;12.60;82.29
8699;BME280;4386;51.236;6.742;2022-10-20T00:49:07;101328.78;;;12.59;82.20
8699;BME280;4386;51.236;6.742;2022-10-20T00:50:16;101326.97;;;12.59;82.06
8699;BME280;4386;51.236;6.742;2022-10-20T00:51:20;101322.63;;;12.58;82.19
8699;BME280;4386;51.236;6.742;2022-10-20T00:52:24;101309.22;;;12.60;82.54
8699;BME280;4386;51.236;6.742;2022-10-20T00:53:27;101314.66;;;12.58;82.54
8699;BME280;4386;51.236;6.742;2022-10-20T00:54:30;101321.66;;;12.59;82.23
8699;BME280;4386;51.236;6.742;2022-10-20T00:55:35;101311.03;;;12.59;82.39
8699;BME280;4386;51.236;6.742;2022-10-20T00:56:41;101305.72;;;12.59;82.46
8699;BME280;4386;51.236;6.742;2022-10-20T00:57:47;101307.38;;;12.60;82.23
8699;BME280;4386;51.236;6.742;2022-10-20T00:58:50;101303.91;;;12.60;82.52
8699;BME280;4386;51.236;6.742;2022-10-20T00:59:53;101309.22;;;12.60;82.31
8699;BME280;4386;51.236;6.742;2022-10-20T01:07:02;101290.81;;;12.57;82.39
8699;BME280;4386;51.236;6.742;2022-10-20T01:08:05;101286.34;;;12.57;82.24
8699;BME280;4386;51.236;6.742;2022-10-20T01:09:07;101281.03;;;12.57;82.33
8699;BME280;4386;51.236;6.742;2022-10-20T01:10:10;101283.69;;;12.57;82.23
8699;BME280;4386;51.236;6.742;2022-10-20T01:11:17;101279.38;;;12.56;82.44
8699;BME280;4386;51.236;6.742;2022-10-20T01:12:30;101277.53;;;12.57;82.41
8699;BME280;4386;51.236;6.742;2022-10-20T01:13:38;101280.19;;;12.57;82.33
8699;BME280;4386;51.236;6.742;2022-10-20T01:14:49;101270.41;;;12.57;82.64
8699;BME280;4386;51.236;6.742;2022-10-20T01:16:00;101276.72;;;12.56;82.30
8699;BME280;4386;51.236;6.742;2022-10-20T01:17:13;101275.72;;;12.57;82.24
8699;BME280;4386;51.236;6.742;2022-10-20T01:18:22;101274.03;;;12.56;82.27
8699;BME280;4386;51.236;6.742;2022-10-20T01:19:48;101266.06;;;12.56;82.47
8699;BME280;4386;51.236;6.742;2022-10-20T01:21:04;101268.72;;;12.56;82.12
8699;BME280;4386;51.236;6.742;2022-10-20T01:22:30;101258.09;;;12.56;82.50
8699;BME280;4386;51.236;6.742;2022-10-20T01:23:53;101263.41;;;12.56;82.24
8699;BME280;4386;51.236;6.742;2022-10-20T01:25:06;101268.72;;;12.56;82.20
8699;BME280;4386;51.236;6.742;2022-10-20T01:26:35;101268.72;;;12.56;82.22
8699;BME280;4386;51.236;6.742;2022-10-20T01:27:41;101264.38;;;12.55;82.23
8699;BME280;4386;51.236;6.742;2022-10-20T01:28:47;101254.69;;;12.54;82.26
8699;BME280;4386;51.236;6.742;2022-10-20T01:29:59;101259.03;;;12.55;82.29
8699;BME280;4386;51.236;6.742;2022-10-20T01:31:06;101257.34;;;12.54;82.31
8699;BME280;4386;51.236;6.742;2022-10-20T01:32:17;101256.38;;;12.55;82.48
8699;BME280;4386;51.236;6.742;2022-10-20T01:33:28;101246.00;;;12.52;82.29
8699;BME280;4386;51.236;6.742;2022-10-20T01:34:36;101252.03;;;12.54;82.27
8699;BME280;4386;51.236;6.742;2022-10-20T01:35:47;101260.00;;;12.54;82.22
8699;BME280;4386;51.236;6.742;2022-10-20T01:36:56;101254.81;;;12.52;82.25
8699;BME280;4386;51.236;6.742;2022-10-20T01:38:07;101255.66;;;12.53;82.06
8699;BME280;4386;51.236;6.742;2022-10-20T01:39:15;101248.66;;;12.52;82.34
8699;BME280;4386;51.236;6.742;2022-10-20T01:40:23;101248.66;;;12.52;82.22
8699;BME280;4386;51.236;6.742;2022-10-20T01:41:31;101257.47;;;12.52;82.28
8699;BME280;4386;51.236;6.742;2022-10-20T01:42:36;101251.31;;;12.52;82.35
8699;BME280;4386;51.236;6.742;2022-10-20T01:43:44;101246.84;;;12.52;82.33
8699;BME280;4386;51.236;6.742;2022-10-20T01:44:47;101263.66;;;12.53;81.98
8699;BME280;4386;51.236;6.742;2022-10-20T01:45:52;101258.34;;;12.53;82.36
8699;BME280;4386;51.236;6.742;2022-10-20T01:46:56;101261.94;;;12.52;82.28
8699;BME280;4386;51.236;6.742;2022-10-20T01:48:02;101254.69;;;12.54;82.38
8699;BME280;4386;51.236;6.742;2022-10-20T01:49:05;101249.38;;;12.54;82.36
8699;BME280;4386;51.236;6.742;2022-10-20T01:50:10;101246.84;;;12.52;82.12
8699;BME280;4386;51.236;6.742;2022-10-20T01:51:12;101247.69;;;12.53;82.36
8699;BME280;4386;51.236;6.742;2022-10-20T01:52:15;101245.84;;;12.53;82.22
8699;BME280;4386;51.236;6.742;2022-10-20T01:53:18;101236.94;;;12.54;82.11
8699;BME280;4386;51.236;6.742;2022-10-20T01:54:22;101241.28;;;12.56;82.17
8699;BME280;4386;51.236;6.742;2022-10-20T01:55:24;101234.25;;;12.54;82.41
8699;BME280;4386;51.236;6.742;2022-10-20T01:56:35;101231.59;;;12.54;82.19
8699;BME280;4386;51.236;6.742;2022-10-20T01:57:44;101231.50;;;12.56;82.30
8699;BME280;4386;51.236;6.742;2022-10-20T02:00:26;101228.09;;;12.54;82.18
8699;BME280;4386;51.236;6.742;2022-10-20T02:01:39;101213.84;;;12.55;82.29
8699;BME280;4386;51.236;6.742;2022-10-20T02:02:58;101210.47;;;12.53;82.30
8699;BME280;4386;51.236;6.742;2022-10-20T02:04:04;101215.66;;;12.54;82.21
8699;BME280;4386;51.236;6.742;2022-10-20T02:05:25;101203.22;;;12.55;82.34
8699;BME280;4386;51.236;6.742;2022-10-20T02:06:37;101211.06;;;12.57;82.15
8699;BME280;4386;51.236;6.742;2022-10-20T02:07:44;101204.91;;;12.56;82.15
8699;BME280;4386;51.236;6.742;2022-10-20T02:08:47;101199.59;;;12.56;82.18
8699;BME280;4386;51.236;6.742;2022-10-20T02:09:54;101198.59;;;12.57;82.07
8699;BME280;4386;51.236;6.742;2022-10-20T02:11:02;101202.13;;;12.58;82.20
8699;BME280;4386;51.236;6.742;2022-10-20T02:12:08;101193.28;;;12.57;81.92
8699;BME280;4386;51.236;6.742;2022-10-20T02:13:14;101202.97;;;12.58;81.94
8699;BME280;4386;51.236;6.742;2022-10-20T02:14:20;101194.28;;;12.56;81.97
8699;BME280;4386;51.236;6.742;2022-10-20T02:15:25;101192.34;;;12.58;81.71
8699;BME280;4386;51.236;6.742;2022-10-20T02:16:32;101179.88;;;12.59;81.79
8699;BME280;4386;51.236;6.742;2022-10-20T02:17:37;101195.69;;;12.60;81.94
8699;BME280;4386;51.236;6.742;2022-10-20T02:18:42;101179.75;;;12.60;81.54
8699;BME280;4386;51.236;6.742;2022-10-20T02:19:47;101178.78;;;12.61;81.83
8699;BME280;4386;51.236;6.742;2022-10-20T02:20:54;101177.84;;;12.62;81.77
8699;BME280;4386;51.236;6.742;2022-10-20T02:21:56;101183.16;;;12.62;81.86
8699;BME280;4386;51.236;6.742;2022-10-20T02:22:59;101177.84;;;12.62;81.89
8699;BME280;4386;51.236;6.742;2022-10-20T02:24:05;101177.84;;;12.62;81.77
8699;BME280;4386;51.236;6.742;2022-10-20T02:25:09;101184.81;;;12.63;81.64
8699;BME280;4386;51.236;6.742;2022-10-20T02:26:13;101184.81;;;12.63;81.80
8699;BME280;4386;51.236;6.742;2022-10-20T02:27:19;101180.34;;;12.64;81.68
8699;BME280;4386;51.236;6.742;2022-10-20T02:28:22;101178.69;;;12.63;81.58
8699;BME280;4386;51.236;6.742;2022-10-20T02:29:30;101178.56;;;12.64;81.26
8699;BME280;4386;51.236;6.742;2022-10-20T02:30:34;101169.84;;;12.62;81.44
8699;BME280;4386;51.236;6.742;2022-10-20T02:31:40;101170.72;;;12.63;81.31
8699;BME280;4386;51.236;6.742;2022-10-20T02:32:43;101168.88;;;12.63;81.55
8699;BME280;4386;51.236;6.742;2022-10-20T02:33:50;101169.72;;;12.64;81.36
8699;BME280;4386;51.236;6.742;2022-10-20T02:34:53;101170.56;;;12.64;81.23
8699;BME280;4386;51.236;6.742;2022-10-20T02:35:57;101175.03;;;12.64;81.49
8699;BME280;4386;51.236;6.742;2022-10-20T02:36:59;101171.41;;;12.65;81.34
8699;BME280;4386;51.236;6.742;2022-10-20T02:38:02;101175.88;;;12.64;81.34
8699;BME280;4386;51.236;6.742;2022-10-20T02:39:04;101173.22;;;12.64;81.25
8699;BME280;4386;51.236;6.742;2022-10-20T02:40:08;101158.22;;;12.63;81.14
8699;BME280;4386;51.236;6.742;2022-10-20T02:41:09;101166.22;;;12.63;81.09
8699;BME280;4386;51.236;6.742;2022-10-20T02:42:12;101161.75;;;12.64;81.03
8699;BME280;4386;51.236;6.742;2022-10-20T02:43:14;101159.09;;;12.64;81.26
8699;BME280;4386;51.236;6.742;2022-10-20T02:44:16;101160.06;;;12.63;81.12
8699;BME280;4386;51.236;6.742;2022-10-20T02:45:20;101157.28;;;12.64;81.06
8699;BME280;4386;51.236;6.742;2022-10-20T02:46:22;101155.56;;;12.63;81.12
8699;BME280;4386;51.236;6.742;2022-10-20T02:47:24;101161.63;;;12.65;81.00
8699;BME280;4386;51.236;6.742;2022-10-20T02:48:27;101157.28;;;12.64;80.74
8699;BME280;4386;51.236;6.742;2022-10-20T02:49:28;101162.59;;;12.64;81.03
8699;BME280;4386;51.236;6.742;2022-10-20T02:50:32;101159.09;;;12.64;80.94
8699;BME280;4386;51.236;6.742;2022-10-20T02:51:34;101161.63;;;12.65;81.06
8699;BME280;4386;51.236;6.742;2022-10-20T02:52:36;101162.50;;;12.66;80.93
8699;BME280;4386;51.236;6.742;2022-10-20T02:53:38;101163.34;;;12.66;80.93
8699;BME280;4386;51.236;6.742;2022-10-20T02:54:41;101152.81;;;12.65;80.81
8699;BME280;4386;51.236;6.742;2022-10-20T02:55:43;101153.66;;;12.65;80.81
8699;BME280;4386;51.236;6.742;2022-10-20T02:56:46;101151.00;;;12.65;80.94
8699;BME280;4386;51.236;6.742;2022-10-20T02:57:47;101145.69;;;12.65;80.92
8699;BME280;4386;51.236;6.742;2022-10-20T02:58:51;101143.03;;;12.65;80.82
8699;BME280;4386;51.236;6.742;2022-10-20T02:59:52;101145.69;;;12.65;80.59
8699;BME280;4386;51.236;6.742;2022-10-20T03:00:56;101136.75;;;12.66;81.03
8699;BME280;4386;51.236;6.742;2022-10-20T03:01:58;101141.22;;;12.66;80.61
8699;BME280;4386;51.236;6.742;2022-10-20T03:03:01;101144.84;;;12.65;80.26
8699;BME280;4386;51.236;6.742;2022-10-20T03:04:03;101135.03;;;12.65;80.70
8699;BME280;4386;51.236;6.742;2022-10-20T03:05:07;101135.03;;;12.65;80.74
8699;BME280;4386;51.236;6.742;2022-10-20T03:06:10;101136.00;;;12.64;80.62
8699;BME280;4386;51.236;6.742;2022-10-20T03:07:13;101140.38;;;12.65;80.74
8699;BME280;4386;51.236;6.742;2022-10-20T03:08:15;101140.38;;;12.65;80.90
8699;BME280;4386;51.236;6.742;2022-10-20T03:09:18;101137.69;;;12.65;80.74
8699;BME280;4386;51.236;6.742;2022-10-20T03:10:20;101135.91;;;12.66;80.87
8699;BME280;4386;51.236;6.742;2022-10-20T03:11:23;101135.03;;;12.65;80.74
8699;BME280;4386;51.236;6.742;2022-10-20T03:12:25;101135.91;;;12.66;80.71
8699;BME280;4386;51.236;6.742;2022-10-20T03:13:32;101139.41;;;12.66;80.49
8699;BME280;4386;51.236;6.742;2022-10-20T03:14:34;101142.06;;;12.66;80.57
8699;BME280;4386;51.236;6.742;2022-10-20T03:15:37;101144.72;;;12.66;80.63
8699;BME280;4386;51.236;6.742;2022-10-20T03:16:40;101137.69;;;12.65;80.65
8699;BME280;4386;51.236;6.742;2022-10-20T03:17:48;101141.22;;;12.66;80.53
8699;BME280;4386;51.236;6.742;2022-10-20T03:18:50;101133.09;;;12.67;80.63
8699;BME280;4386;51.236;6.742;2022-10-20T03:19:52;101131.44;;;12.66;80.83
8699;BME280;4386;51.236;6.742;2022-10-20T03:20:54;101140.38;;;12.65;80.70
8699;BME280;4386;51.236;6.742;2022-10-20T03:21:56;101135.03;;;12.65;80.62
8699;BME280;4386;51.236;6.742;2022-10-20T03:22:58;101131.44;;;12.66;80.37
8699;BME280;4386;51.236;6.742;2022-10-20T03:24:01;101134.91;;;12.67;80.46
8699;BME280;4386;51.236;6.742;2022-10-20T03:25:03;101122.47;;;12.67;80.42
8699;BME280;4386;51.236;6.742;2022-10-20T03:26:08;101128.63;;;12.68;80.48
8699;BME280;4386;51.236;6.742;2022-10-20T03:27:10;101125.97;;;12.68;80.49
8699;BME280;4386;51.236;6.742;2022-10-20T03:28:13;101124.16;;;12.68;80.46
8699;BME280;4386;51.236;6.742;2022-10-20T03:29:14;101118.84;;;12.68;80.33
8699;BME280;4386;51.236;6.742;2022-10-20T03:30:17;101118.84;;;12.68;80.42
8699;BME280;4386;51.236;6.742;2022-10-20T03:31:19;101120.53;;;12.69;80.46
8699;BME280;4386;51.236;6.742;2022-10-20T03:32:23;101111.56;;;12.70;80.30
8699;BME280;4386;51.236;6.742;2022-10-20T03:33:25;101116.88;;;12.70;80.54
8699;BME280;4386;51.236;6.742;2022-10-20T03:34:28;101116.78;;;12.72;80.42
8699;BME280;4386;51.236;6.742;2022-10-20T03:35:29;101117.63;;;12.72;80.33
8699;BME280;4386;51.236;6.742;2022-10-20T03:36:32;101115.81;;;12.73;80.37
8699;BME280;4386;51.236;6.742;2022-10-20T03:37:35;101114.97;;;12.72;80.29
8699;BME280;4386;51.236;6.742;2022-10-20T03:38:39;101111.31;;;12.73;80.37
8699;BME280;4386;51.236;6.742;2022-10-20T03:39:42;101118.34;;;12.74;80.29
8699;BME280;4386;51.236;6.742;2022-10-20T03:40:43;101107.69;;;12.74;80.19
8699;BME280;4386;51.236;6.742;2022-10-20T03:41:46;101111.22;;;12.75;79.96
8699;BME280;4386;51.236;6.742;2022-10-20T03:42:47;101100.56;;;12.75;79.97
8699;BME280;4386;51.236;6.742;2022-10-20T03:43:50;101104.09;;;12.75;80.02
8699;BME280;4386;51.236;6.742;2022-10-20T03:44:51;101099.63;;;12.76;79.94
8699;BME280;4386;51.236;6.742;2022-10-20T03:46:00;101105.75;;;12.76;80.10
8699;BME280;4386;51.236;6.742;2022-10-20T03:47:02;101108.41;;;12.76;80.22
8699;BME280;4386;51.236;6.742;2022-10-20T03:48:07;101105.75;;;12.76;79.93
8699;BME280;4386;51.236;6.742;2022-10-20T03:49:08;101112.78;;;12.77;79.58
8699;BME280;4386;51.236;6.742;2022-10-20T03:50:15;101097.78;;;12.76;80.02
8699;BME280;4386;51.236;6.742;2022-10-20T03:51:16;101106.59;;;12.77;79.98
8699;BME280;4386;51.236;6.742;2022-10-20T03:52:19;101100.44;;;12.76;79.94
8699;BME280;4386;51.236;6.742;2022-10-20T03:53:20;101103.94;;;12.77;80.05
8699;BME280;4386;51.236;6.742;2022-10-20T03:54:23;101105.75;;;12.76;79.94
8699;BME280;4386;51.236;6.742;2022-10-20T03:55:25;101103.09;;;12.76;79.81
8699;BME280;4386;51.236;6.742;2022-10-20T03:56:27;101105.75;;;12.76;79.99
8699;BME280;4386;51.236;6.742;2022-10-20T03:57:29;101095.84;;;12.78;79.88
8699;BME280;4386;51.236;6.742;2022-10-20T03:58:32;101089.69;;;12.78;79.99
8699;BME280;4386;51.236;6.742;2022-10-20T03:59:33;101087.88;;;12.78;79.75
8699;BME280;4386;51.236;6.742;2022-10-20T04:00:36;101089.56;;;12.79;79.88
8699;BME280;4386;51.236;6.742;2022-10-20T04:01:37;101081.72;;;12.78;79.61
8699;BME280;4386;51.236;6.742;2022-10-20T04:02:42;101084.25;;;12.79;79.83
8699;BME280;4386;51.236;6.742;2022-10-20T04:03:45;101089.69;;;12.78;79.67
8699;BME280;4386;51.236;6.742;2022-10-20T04:04:47;101079.91;;;12.78;79.81
8699;BME280;4386;51.236;6.742;2022-10-20T04:05:49;101069.38;;;12.77;79.87
8699;BME280;4386;51.236;6.742;2022-10-20T04:06:52;101074.69;;;12.77;79.84
8699;BME280;4386;51.236;6.742;2022-10-20T04:07:53;101082.56;;;12.78;79.86
8699;BME280;4386;51.236;6.742;2022-10-20T04:08:56;101070.97;;;12.79;79.76
8699;BME280;4386;51.236;6.742;2022-10-20T04:09:57;101066.59;;;12.78;79.75
8699;BME280;4386;51.236;6.742;2022-10-20T04:11:02;101066.59;;;12.78;79.73
8699;BME280;4386;51.236;6.742;2022-10-20T04:12:04;101071.06;;;12.78;79.97
8699;BME280;4386;51.236;6.742;2022-10-20T04:13:07;101071.06;;;12.78;79.56
8699;BME280;4386;51.236;6.742;2022-10-20T04:14:09;101073.84;;;12.76;79.79
8699;BME280;4386;51.236;6.742;2022-10-20T04:15:12;101078.19;;;12.77;79.70
8699;BME280;4386;51.236;6.742;2022-10-20T04:16:14;101078.94;;;12.79;79.71
8699;BME280;4386;51.236;6.742;2022-10-20T04:17:16;101078.19;;;12.77;79.75
8699;BME280;4386;51.236;6.742;2022-10-20T04:18:18;101081.59;;;12.79;79.70
8699;BME280;4386;51.236;6.742;2022-10-20T04:19:21;101066.59;;;12.78;79.71
8699;BME280;4386;51.236;6.742;2022-10-20T04:20:23;101084.25;;;12.79;79.68
8699;BME280;4386;51.236;6.742;2022-10-20T04:21:26;101071.78;;;12.80;79.56
8699;BME280;4386;51.236;6.742;2022-10-20T04:22:27;101078.94;;;12.79;79.64
8699;BME280;4386;51.236;6.742;2022-10-20T04:23:30;101072.63;;;12.80;79.31
8699;BME280;4386;51.236;6.742;2022-10-20T04:24:32;101074.44;;;12.80;79.57
8699;BME280;4386;51.236;6.742;2022-10-20T04:25:34;101067.31;;;12.80;79.48
8699;BME280;4386;51.236;6.742;2022-10-20T04:26:36;101062.97;;;12.79;79.35
8699;BME280;4386;51.236;6.742;2022-10-20T04:27:38;101057.66;;;12.79;79.54
8699;BME280;4386;51.236;6.742;2022-10-20T04:28:40;101053.16;;;12.80;79.54
8699;BME280;4386;51.236;6.742;2022-10-20T04:29:43;101061.28;;;12.78;79.32
8699;BME280;4386;51.236;6.742;2022-10-20T04:30:45;101057.66;;;12.79;79.52
8699;BME280;4386;51.236;6.742;2022-10-20T04:31:48;101058.63;;;12.78;79.48
8699;BME280;4386;51.236;6.742;2022-10-20T04:32:49;101062.97;;;12.79;79.54
8699;BME280;4386;51.236;6.742;2022-10-20T04:33:52;101053.31;;;12.78;79.51
8699;BME280;4386;51.236;6.742;2022-10-20T04:34:56;101052.34;;;12.79;79.37
8699;BME280;4386;51.236;6.742;2022-10-20T04:35:59;101048.69;;;12.80;79.51
8699;BME280;4386;51.236;6.742;2022-10-20T04:37:00;101047.03;;;12.79;79.60
8699;BME280;4386;51.236;6.742;2022-10-20T04:38:06;101041.69;;;12.79;79.53
8699;BME280;4386;51.236;6.742;2022-10-20T04:39:08;101025.75;;;12.79;79.45
8699;BME280;4386;51.236;6.742;2022-10-20T04:40:11;101024.75;;;12.80;79.40
8699;BME280;4386;51.236;6.742;2022-10-20T04:41:13;101022.09;;;12.80;79.41
8699;BME280;4386;51.236;6.742;2022-10-20T04:42:15;101013.16;;;12.81;79.70
8699;BME280;4386;51.236;6.742;2022-10-20T04:43:17;101019.31;;;12.82;79.32
8699;BME280;4386;51.236;6.742;2022-10-20T04:44:19;101026.31;;;12.83;79.41
8699;BME280;4386;51.236;6.742;2022-10-20T04:45:21;101021.84;;;12.83;79.41
8699;BME280;4386;51.236;6.742;2022-10-20T04:46:23;101032.47;;;12.83;79.30
8699;BME280;4386;51.236;6.742;2022-10-20T04:47:30;101027.16;;;12.83;79.21
8699;BME280;4386;51.236;6.742;2022-10-20T04:48:32;101022.69;;;12.84;79.30
8699;BME280;4386;51.236;6.742;2022-10-20T04:49:34;101027.88;;;12.85;79.29
8699;BME280;4386;51.236;6.742;2022-10-20T04:50:38;101010.94;;;12.86;79.45
8699;BME280;4386;51.236;6.742;2022-10-20T04:51:40;101026.91;;;12.86;79.13
8699;BME280;4386;51.236;6.742;2022-10-20T04:52:43;101017.09;;;12.87;79.12
8699;BME280;4386;51.236;6.742;2022-10-20T04:53:45;101009.00;;;12.88;79.13
8699;BME280;4386;51.236;6.742;2022-10-20T04:54:48;101011.69;;;12.88;79.14
8699;BME280;4386;51.236;6.742;2022-10-20T04:55:53;101000.88;;;12.90;78.88
8699;BME280;4386;51.236;6.742;2022-10-20T04:56:55;101005.34;;;12.89;79.01
8699;BME280;4386;51.236;6.742;2022-10-20T04:57:57;101006.22;;;12.90;79.10
8699;BME280;4386;51.236;6.742;2022-10-20T04:59:00;101001.75;;;12.90;79.01
8699;BME280;4386;51.236;6.742;2022-10-20T05:00:03;101002.59;;;12.91;78.98
8699;BME280;4386;51.236;6.742;2022-10-20T05:01:08;101000.78;;;12.91;79.11
8699;BME280;4386;51.236;6.742;2022-10-20T05:02:10;100998.13;;;12.91;79.01
8699;BME280;4386;51.236;6.742;2022-10-20T05:03:12;100994.50;;;12.92;78.94
8699;BME280;4386;51.236;6.742;2022-10-20T05:04:14;100994.50;;;12.92;79.32
8699;BME280;4386;51.236;6.742;2022-10-20T05:05:21;100991.84;;;12.92;78.97
8699;BME280;4386;51.236;6.742;2022-10-20T05:06:25;100991.69;;;12.94;78.84
8699;BME280;4386;51.236;6.742;2022-10-20T05:07:28;100997.00;;;12.94;78.81
8699;BME280;4386;51.236;6.742;2022-10-20T05:08:30;100993.38;;;12.95;78.91
8699;BME280;4386;51.236;6.742;2022-10-20T05:09:33;100996.91;;;12.95;78.84
8699;BME280;4386;51.236;6.742;2022-10-20T05:10:37;100998.56;;;12.96;78.83
8699;BME280;4386;51.236;6.742;2022-10-20T05:11:40;100995.91;;;12.96;78.66
8699;BME280;4386;51.236;6.742;2022-10-20T05:12:43;100990.59;;;12.96;78.78
8699;BME280;4386;51.236;6.742;2022-10-20T05:13:45;100984.31;;;12.97;78.90
8699;BME280;4386;51.236;6.742;2022-10-20T05:14:48;100980.69;;;12.98;78.51
8699;BME280;4386;51.236;6.742;2022-10-20T05:15:51;100980.69;;;12.98;78.59
8699;BME280;4386;51.236;6.742;2022-10-20T05:16:52;100979.94;;;12.96;78.62
8699;BME280;4386;51.236;6.742;2022-10-20T05:17:55;100976.31;;;12.97;78.53
8699;BME280;4386;51.236;6.742;2022-10-20T05:18:56;100972.69;;;12.98;78.36
8699;BME280;4386;51.236;6.742;2022-10-20T05:19:59;100976.16;;;12.99;78.38
8699;BME280;4386;51.236;6.742;2022-10-20T05:21:04;100972.69;;;12.98;78.49
8699;BME280;4386;51.236;6.742;2022-10-20T05:22:12;100960.22;;;12.99;78.55
8699;BME280;4386;51.236;6.742;2022-10-20T05:23:15;100967.38;;;12.98;78.44
8699;BME280;4386;51.236;6.742;2022-10-20T05:24:17;100960.34;;;12.97;78.40
8699;BME280;4386;51.236;6.742;2022-10-20T05:25:23;100964.72;;;12.98;78.57
8699;BME280;4386;51.236;6.742;2022-10-20T05:26:37;100973.66;;;12.97;78.47
8699;BME280;4386;51.236;6.742;2022-10-20T05:27:39;100974.50;;;12.98;78.50
8699;BME280;4386;51.236;6.742;2022-10-20T05:28:43;100983.34;;;12.98;78.14
8699;BME280;4386;51.236;6.742;2022-10-20T05:29:45;100967.38;;;12.98;78.33
8699;BME280;4386;51.236;6.742;2022-10-20T05:30:47;100978.00;;;12.98;78.26
8699;BME280;4386;51.236;6.742;2022-10-20T05:31:50;100981.50;;;12.99;78.37
8699;BME280;4386;51.236;6.742;2022-10-20T05:32:51;100971.84;;;12.98;78.58
8699;BME280;4386;51.236;6.742;2022-10-20T05:33:55;100962.88;;;12.99;78.42
8699;BME280;4386;51.236;6.742;2022-10-20T05:34:57;100951.41;;;12.98;78.38
8699;BME280;4386;51.236;6.742;2022-10-20T05:35:59;100954.06;;;12.98;78.20
8699;BME280;4386;51.236;6.742;2022-10-20T05:37:06;100956.72;;;12.98;78.19
8699;BME280;4386;51.236;6.742;2022-10-20T05:38:10;100941.59;;;12.99;78.47
8699;BME280;4386;51.236;6.742;2022-10-20T05:39:12;100953.06;;;12.99;78.47
8699;BME280;4386;51.236;6.742;2022-10-20T05:40:14;100942.44;;;12.99;78.12
8699;BME280;4386;51.236;6.742;2022-10-20T05:41:18;100949.44;;;13.00;78.29
8699;BME280;4386;51.236;6.742;2022-10-20T05:42:21;100946.09;;;12.98;78.00
8699;BME280;4386;51.236;6.742;2022-10-20T05:43:24;100946.91;;;12.99;78.10
8699;BME280;4386;51.236;6.742;2022-10-20T05:44:25;100946.09;;;12.98;77.76
8699;BME280;4386;51.236;6.742;2022-10-20T05:45:28;100948.75;;;12.98;78.00
8699;BME280;4386;51.236;6.742;2022-10-20T05:46:31;100948.59;;;13.00;77.59
8699;BME280;4386;51.236;6.742;2022-10-20T05:47:34;100946.09;;;12.98;78.00
8699;BME280;4386;51.236;6.742;2022-10-20T05:48:35;100929.28;;;12.98;78.22
8699;BME280;4386;51.236;6.742;2022-10-20T05:49:43;100945.94;;;13.00;77.87
8699;BME280;4386;51.236;6.742;2022-10-20T05:50:45;100943.44;;;12.98;77.85
8699;BME280;4386;51.236;6.742;2022-10-20T05:51:48;100939.91;;;12.98;78.17
8699;BME280;4386;51.236;6.742;2022-10-20T05:52:49;100943.44;;;12.98;78.05